Dale City, Virginia
Current Conditions -  °F | °C
As of 10:58 PM on Monday 22 Dec 2014 (Local Time) from KDAA Reporting Station
Drizzle Drizzle  
Wind Chill: 32°   Ceiling: 600
Heat Index: 36°   Visibility: 3mi
Dew Point: 34°   Wind: 5mph
Humidity: 93%   Direction: 300°WNW
Pressure: 30.1"   Gusts: NA
Location:  38.6486°N, 77.3446°W
Report Text: KDAA 230358Z AUTO 30004KT 3SM R32/4000FT -DZ BR OVC006 02/01 A3010 RMK AO2 RAB0317E0337DZB0337 SLP197 P0000 T00230013
Loading
Personal Weather Stations






























Interactive Weather Map New forecast layout! Learn more

10-Day Weather Forecast

Advertisements
Track Severe Weather on mobile